createdAt,value
2023-02-12T00:01:42.862Z,13.15
2023-02-12T00:04:10.595Z,13.10
2023-02-12T00:06:46.519Z,13.10
2023-02-12T00:09:14.593Z,13.12
2023-02-12T00:11:42.182Z,13.16
2023-02-12T00:14:09.477Z,13.12
2023-02-12T00:16:37.008Z,13.03
2023-02-12T00:19:04.195Z,13.12
2023-02-12T00:21:32.015Z,13.07
2023-02-12T00:24:01.476Z,13.07
2023-02-12T00:26:28.596Z,13.14
2023-02-12T00:28:56.145Z,13.14
2023-02-12T00:31:30.510Z,13.09
2023-02-12T00:33:59.394Z,13.11
2023-02-12T00:36:28.081Z,13.08
2023-02-12T00:38:56.888Z,13.11
2023-02-12T00:41:25.481Z,13.11
2023-02-12T00:44:00.255Z,13.14
2023-02-12T00:46:27.300Z,13.16
2023-02-12T00:48:54.463Z,13.01
2023-02-12T00:51:22.507Z,13.00
2023-02-12T00:53:49.428Z,13.04
2023-02-12T00:56:16.704Z,12.94
2023-02-12T00:58:45.326Z,12.98
2023-02-12T01:01:12.434Z,13.05
2023-02-12T01:03:40.272Z,12.86
2023-02-12T01:06:09.242Z,12.89
2023-02-12T01:08:36.605Z,12.92
2023-02-12T01:11:06.319Z,12.94
2023-02-12T01:13:35.255Z,12.96
2023-02-12T01:16:12.908Z,13.02
2023-02-12T01:18:40.210Z,13.03
2023-02-12T01:21:16.357Z,13.04
2023-02-12T01:23:44.649Z,13.00
2023-02-12T01:26:12.444Z,12.97
2023-02-12T01:28:42.022Z,12.95
2023-02-12T01:31:17.445Z,13.03
2023-02-12T01:33:50.849Z,13.02
2023-02-12T01:36:18.146Z,13.03
2023-02-12T01:38:46.795Z,12.58
2023-02-12T01:41:19.161Z,12.91
2023-02-12T01:44:07.050Z,12.93
2023-02-12T01:46:35.185Z,12.90
2023-02-12T01:49:04.639Z,12.93
2023-02-12T01:51:32.794Z,12.91
2023-02-12T01:54:02.682Z,12.93
2023-02-12T01:56:30.745Z,12.85
2023-02-12T01:58:58.212Z,12.90
2023-02-12T02:01:27.912Z,12.93
2023-02-12T02:04:00.481Z,12.93
2023-02-12T02:06:33.081Z,12.79
2023-02-12T02:09:01.475Z,12.89
2023-02-12T02:11:47.586Z,12.88
2023-02-12T02:14:34.845Z,12.81
2023-02-12T02:17:20.561Z,12.89
2023-02-12T02:20:14.937Z,12.94
2023-02-12T02:23:17.856Z,12.94
2023-02-12T02:26:04.126Z,12.99
2023-02-12T02:28:49.871Z,12.98
2023-02-12T02:31:26.014Z,12.98
2023-02-12T02:34:18.967Z,12.89
2023-02-12T02:37:09.662Z,12.93
2023-02-12T02:39:48.637Z,12.89
2023-02-12T02:42:20.159Z,12.89
2023-02-12T02:45:11.439Z,12.90
2023-02-12T02:47:56.641Z,12.93
2023-02-12T02:50:25.940Z,12.88
2023-02-12T02:52:57.128Z,12.89
2023-02-12T02:55:26.905Z,12.87
2023-02-12T02:57:58.051Z,12.82
2023-02-12T03:00:36.560Z,12.47
2023-02-12T03:03:10.806Z,12.54
2023-02-12T03:05:42.811Z,12.66
2023-02-12T03:08:17.297Z,12.91
2023-02-12T03:10:47.328Z,12.92
2023-02-12T03:13:21.317Z,12.80
2023-02-12T03:16:01.081Z,12.82
2023-02-12T03:18:37.095Z,12.70
2023-02-12T03:21:17.608Z,12.92
2023-02-12T03:23:53.131Z,12.84
2023-02-12T03:26:25.464Z,12.93
2023-02-12T03:28:53.033Z,12.89
2023-02-12T03:31:38.526Z,12.76
2023-02-12T03:34:15.324Z,12.76
2023-02-12T03:36:53.871Z,12.85
2023-02-12T03:39:21.324Z,12.85
2023-02-12T03:41:52.083Z,12.86
2023-02-12T03:44:42.848Z,12.03
2023-02-12T03:47:21.960Z,12.34
2023-02-12T03:50:06.895Z,12.63
2023-02-12T03:52:34.178Z,12.62
2023-02-12T03:55:01.498Z,12.66
2023-02-12T03:57:34.409Z,12.83
2023-02-12T04:00:05.814Z,12.81
2023-02-12T04:02:42.702Z,12.82
2023-02-12T04:05:17.926Z,12.83
2023-02-12T04:07:45.126Z,12.82
2023-02-12T04:10:13.272Z,12.81
2023-02-12T04:12:56.977Z,12.86
2023-02-12T04:15:44.460Z,12.89
2023-02-12T04:18:21.308Z,12.85
2023-02-12T04:21:00.554Z,12.65
2023-02-12T04:23:51.025Z,12.66
2023-02-12T04:26:25.310Z,12.75
2023-02-12T04:29:01.768Z,12.71
2023-02-12T04:31:53.110Z,12.60
2023-02-12T04:34:32.238Z,12.60
2023-02-12T04:37:18.372Z,12.61
2023-02-12T04:39:46.389Z,12.68
2023-02-12T04:42:16.347Z,12.66
2023-02-12T04:44:44.671Z,12.41
2023-02-12T04:47:16.623Z,12.63
2023-02-12T04:49:44.172Z,12.68
2023-02-12T04:52:12.968Z,12.60
2023-02-12T04:54:42.149Z,12.64
2023-02-12T04:57:10.607Z,12.52
2023-02-12T04:59:37.726Z,12.69
2023-02-12T05:02:05.450Z,12.70
2023-02-12T05:04:33.568Z,12.37
2023-02-12T05:07:00.947Z,12.37
2023-02-12T05:09:28.225Z,12.59
2023-02-12T05:11:55.567Z,12.69
2023-02-12T05:14:25.716Z,12.66
2023-02-12T05:16:53.156Z,12.54
2023-02-12T05:19:20.190Z,12.06
2023-02-12T05:21:56.810Z,12.46
2023-02-12T05:24:26.932Z,12.48
2023-02-12T05:26:54.313Z,12.54
2023-02-12T05:29:22.024Z,12.65
2023-02-12T05:31:51.577Z,12.64
2023-02-12T05:34:19.024Z,12.66
2023-02-12T05:36:46.579Z,12.68
2023-02-12T05:39:13.726Z,12.68
2023-02-12T05:41:40.526Z,12.66
2023-02-12T05:44:07.807Z,12.69
2023-02-12T05:46:36.531Z,12.77
2023-02-12T05:49:03.938Z,12.60
2023-02-12T05:51:32.370Z,12.51
2023-02-12T05:54:03.725Z,12.70
2023-02-12T05:56:37.923Z,12.71
2023-02-12T05:59:07.838Z,12.59
2023-02-12T06:01:41.490Z,12.21
2023-02-12T06:04:15.751Z,12.42
2023-02-12T06:06:43.506Z,12.56
2023-02-12T06:09:12.530Z,12.52
2023-02-12T06:11:39.815Z,12.67
2023-02-12T06:14:11.396Z,12.69
2023-02-12T06:16:38.449Z,12.72
2023-02-12T06:19:07.740Z,12.73
2023-02-12T06:21:36.788Z,12.38
2023-02-12T06:24:04.829Z,12.46
2023-02-12T06:26:34.119Z,12.53
2023-02-12T06:29:02.617Z,12.51
2023-02-12T06:31:33.734Z,12.66
2023-02-12T06:34:04.774Z,12.68
2023-02-12T06:36:35.179Z,12.66
2023-02-12T06:39:03.183Z,12.68
2023-02-12T06:41:32.602Z,12.56
2023-02-12T06:44:04.093Z,12.69
2023-02-12T06:46:31.518Z,12.67
2023-02-12T06:49:00.198Z,12.66
2023-02-12T06:51:29.091Z,12.67
2023-02-12T06:54:01.291Z,12.67
2023-02-12T06:56:28.947Z,12.68
2023-02-12T06:58:58.091Z,12.70
2023-02-12T07:01:29.611Z,12.73
2023-02-12T07:04:01.208Z,12.75
2023-02-12T07:06:36.710Z,12.68
2023-02-12T07:09:05.398Z,12.67
2023-02-12T07:11:39.224Z,12.68
2023-02-12T07:14:07.677Z,12.36
2023-02-12T07:16:40.266Z,12.57
2023-02-12T07:19:13.804Z,12.21
2023-02-12T07:21:44.786Z,12.45
2023-02-12T07:24:19.739Z,12.51
2023-02-12T07:27:14.523Z,12.64
2023-02-12T07:29:43.160Z,12.48
2023-02-12T07:32:11.078Z,12.59
2023-02-12T07:34:39.447Z,12.55
2023-02-12T07:37:07.988Z,12.63
2023-02-12T07:39:40.121Z,12.66
2023-02-12T07:42:15.018Z,12.69
2023-02-12T07:44:50.333Z,12.64
2023-02-12T07:47:18.041Z,12.66
2023-02-12T07:49:45.251Z,12.73
2023-02-12T07:52:13.712Z,12.64
2023-02-12T07:54:44.794Z,12.59
2023-02-12T07:57:14.070Z,12.68
2023-02-12T07:59:41.829Z,12.67
2023-02-12T08:02:10.183Z,12.71
2023-02-12T08:04:38.038Z,12.57
2023-02-12T08:07:16.685Z,12.68
2023-02-12T08:09:46.251Z,12.77
2023-02-12T08:12:16.019Z,12.75
2023-02-12T08:14:46.838Z,12.63
2023-02-12T08:17:26.384Z,12.71
2023-02-12T08:20:04.572Z,12.71
2023-02-12T08:22:33.733Z,12.79
2023-02-12T08:25:01.550Z,12.84
2023-02-12T08:27:28.947Z,12.83
2023-02-12T08:29:55.957Z,12.77
2023-02-12T08:32:24.333Z,12.73
2023-02-12T08:34:51.804Z,12.80
2023-02-12T08:37:18.868Z,12.85
2023-02-12T08:39:46.229Z,12.84
2023-02-12T08:42:16.243Z,12.71
2023-02-12T08:44:44.438Z,12.76
2023-02-12T08:47:14.614Z,12.80
2023-02-12T08:49:42.788Z,12.74
2023-02-12T08:52:17.465Z,12.60
2023-02-12T08:54:47.558Z,12.78
2023-02-12T08:57:15.531Z,12.85
2023-02-12T08:59:43.305Z,12.69
2023-02-12T09:02:14.415Z,12.86
2023-02-12T09:04:43.705Z,12.88
2023-02-12T09:07:14.059Z,12.83
2023-02-12T09:09:47.579Z,12.90
2023-02-12T09:12:16.868Z,12.90
2023-02-12T09:14:46.024Z,12.92
2023-02-12T09:17:17.545Z,12.99
2023-02-12T09:19:46.719Z,12.93
2023-02-12T09:22:15.299Z,12.94
2023-02-12T09:24:43.074Z,12.97
2023-02-12T09:27:35.533Z,13.04
2023-02-12T09:30:02.674Z,13.07
2023-02-12T09:32:30.286Z,13.02
2023-02-12T09:34:57.669Z,13.08
2023-02-12T09:37:29.855Z,13.06
2023-02-12T09:39:57.425Z,13.06
2023-02-12T09:42:45.601Z,13.01
2023-02-12T09:45:23.820Z,12.90
2023-02-12T09:48:28.365Z,13.07
2023-02-12T09:50:57.566Z,13.16
2023-02-12T09:53:29.536Z,13.15
2023-02-12T09:55:57.483Z,13.23
2023-02-12T09:58:39.842Z,13.22
2023-02-12T10:01:16.654Z,13.26
2023-02-12T10:03:46.626Z,13.27
2023-02-12T10:06:25.191Z,13.26
2023-02-12T10:09:11.394Z,13.28
2023-02-12T10:12:14.199Z,13.25
2023-02-12T10:15:09.378Z,13.29
2023-02-12T10:17:59.418Z,13.32
2023-02-12T10:20:52.455Z,13.34
2023-02-12T10:23:29.554Z,13.27
2023-02-12T10:26:11.981Z,13.33
2023-02-12T10:28:40.447Z,13.31
2023-02-12T10:31:45.838Z,13.31
2023-02-12T10:34:19.583Z,13.33
2023-02-12T10:37:15.746Z,13.31
2023-02-12T10:39:51.021Z,13.26
2023-02-12T10:42:51.784Z,13.18
2023-02-12T10:45:22.443Z,13.24
2023-02-12T10:47:53.391Z,13.17
2023-02-12T10:50:29.037Z,13.26
2023-02-12T10:53:01.461Z,13.28
2023-02-12T10:55:33.148Z,13.29
2023-02-12T10:58:03.008Z,13.02
2023-02-12T11:00:33.979Z,13.16
2023-02-12T11:03:04.335Z,13.19
2023-02-12T11:05:36.080Z,13.29
2023-02-12T11:08:04.606Z,13.31
2023-02-12T11:10:42.425Z,13.17
2023-02-12T11:13:25.398Z,13.00
2023-02-12T11:15:53.065Z,13.12
2023-02-12T11:18:26.778Z,13.09
2023-02-12T11:20:57.369Z,13.13
2023-02-12T11:23:24.529Z,13.25
2023-02-12T11:26:04.487Z,13.01
2023-02-12T11:28:36.478Z,13.30
2023-02-12T11:31:18.088Z,13.01
2023-02-12T11:33:46.358Z,13.33
2023-02-12T11:36:22.761Z,13.19
2023-02-12T11:38:56.002Z,13.15
2023-02-12T11:42:16.400Z,13.04
2023-02-12T11:44:52.825Z,13.21
2023-02-12T11:47:39.346Z,13.15
2023-02-12T11:50:26.817Z,13.29
2023-02-12T11:52:58.546Z,13.32
2023-02-12T11:55:31.586Z,13.35
2023-02-12T11:58:17.471Z,13.55
2023-02-12T12:01:17.977Z,13.28
2023-02-12T12:03:50.598Z,13.44
2023-02-12T12:06:32.683Z,13.45
2023-02-12T12:09:16.507Z,13.56
2023-02-12T12:12:09.193Z,13.62
2023-02-12T12:15:00.655Z,13.56
2023-02-12T12:17:56.317Z,13.32
2023-02-12T12:20:27.606Z,13.37
2023-02-12T12:23:14.739Z,12.90
2023-02-12T12:26:24.455Z,13.44
2023-02-12T12:29:02.907Z,13.53
2023-02-12T12:31:40.731Z,13.07
2023-02-12T12:34:10.952Z,13.43
2023-02-12T12:37:08.533Z,12.84
2023-02-12T12:39:50.950Z,13.28
2023-02-12T12:42:54.005Z,13.27
2023-02-12T12:46:00.336Z,13.36
2023-02-12T12:48:53.762Z,13.41
2023-02-12T12:51:30.081Z,13.47
2023-02-12T12:54:33.441Z,13.51
2023-02-12T12:57:19.345Z,13.47
2023-02-12T13:00:26.271Z,13.30
2023-02-12T13:03:22.285Z,13.30
2023-02-12T13:06:00.413Z,13.32
2023-02-12T13:09:06.324Z,13.25
2023-02-12T13:12:12.055Z,12.90
2023-02-12T13:15:01.240Z,13.34
2023-02-12T13:17:37.147Z,13.49
2023-02-12T13:20:27.592Z,13.11
2023-02-12T13:23:16.639Z,13.51
2023-02-12T13:26:16.133Z,13.61
2023-02-12T13:28:49.333Z,13.59
2023-02-12T13:31:32.446Z,13.22
2023-02-12T13:34:15.669Z,13.53
2023-02-12T13:36:46.023Z,13.36
2023-02-12T13:39:29.279Z,13.60
2023-02-12T13:42:37.136Z,13.37
2023-02-12T13:45:20.553Z,13.54
2023-02-12T13:48:09.947Z,13.17
2023-02-12T13:50:40.703Z,12.93
2023-02-12T13:53:19.112Z,13.29
2023-02-12T13:56:02.488Z,13.45
2023-02-12T13:58:37.435Z,13.42
2023-02-12T14:01:04.802Z,13.40
2023-02-12T14:03:35.810Z,13.38
2023-02-12T14:06:20.592Z,13.61
2023-02-12T14:08:51.591Z,13.30
2023-02-12T14:11:26.056Z,13.49
2023-02-12T14:14:02.048Z,13.24
2023-02-12T14:16:29.417Z,13.28
2023-02-12T14:19:34.447Z,13.54
2023-02-12T14:22:03.607Z,13.37
2023-02-12T14:24:56.726Z,13.33
2023-02-12T14:27:31.832Z,13.57
2023-02-12T14:30:08.350Z,13.57
2023-02-12T14:32:54.236Z,13.28
2023-02-12T14:35:30.399Z,13.51
2023-02-12T14:38:00.013Z,13.43
2023-02-12T14:40:47.371Z,13.50
2023-02-12T14:43:32.945Z,13.60
2023-02-12T14:46:23.076Z,13.60
2023-02-12T14:48:56.148Z,13.67
2023-02-12T14:51:34.317Z,13.78
2023-02-12T14:54:04.401Z,13.85
2023-02-12T14:56:40.999Z,13.75
2023-02-12T14:59:17.677Z,13.13
2023-02-12T15:01:48.085Z,13.58
2023-02-12T15:04:27.013Z,13.67
2023-02-12T15:07:01.745Z,13.60
2023-02-12T15:10:11.269Z,13.67
2023-02-12T15:13:14.211Z,13.70
2023-02-12T15:16:01.378Z,13.70
2023-02-12T15:18:59.257Z,13.63
2023-02-12T15:21:29.509Z,13.50
2023-02-12T15:24:10.562Z,13.25
2023-02-12T15:26:43.747Z,13.02
2023-02-12T15:29:31.054Z,13.19
2023-02-12T15:32:01.293Z,13.54
2023-02-12T15:34:33.131Z,13.56
2023-02-12T15:37:03.178Z,13.62
2023-02-12T15:40:00.352Z,13.57
2023-02-12T15:42:39.403Z,13.71
2023-02-12T15:45:19.292Z,13.56
2023-02-12T15:48:07.765Z,13.65
2023-02-12T15:50:36.732Z,13.48
2023-02-12T15:53:06.689Z,13.36
2023-02-12T15:55:40.616Z,13.41
2023-02-12T15:58:21.963Z,13.57
2023-02-12T16:00:50.680Z,13.50
2023-02-12T16:03:23.806Z,13.34
2023-02-12T16:05:52.194Z,13.50
2023-02-12T16:08:27.113Z,12.82
2023-02-12T16:10:55.545Z,13.26
2023-02-12T16:13:36.377Z,13.29
2023-02-12T16:16:08.544Z,13.49
2023-02-12T16:18:44.589Z,13.47
2023-02-12T16:21:33.361Z,13.54
2023-02-12T16:27:50.434Z,13.28
2023-02-12T16:30:37.791Z,13.36
2023-02-12T16:33:06.886Z,13.56
2023-02-12T16:35:36.646Z,13.49
2023-02-12T16:38:31.351Z,13.66
2023-02-12T16:41:27.055Z,13.64
2023-02-12T16:44:00.979Z,13.43
2023-02-12T16:46:33.722Z,13.60
2023-02-12T16:49:24.694Z,13.60
2023-02-12T16:51:53.899Z,13.66
2023-02-12T16:54:34.805Z,13.62
2023-02-12T17:02:58.144Z,13.57
2023-02-12T17:05:30.905Z,13.59
2023-02-12T17:07:58.064Z,13.61
2023-02-12T17:10:29.178Z,13.56
2023-02-12T17:12:58.926Z,13.56
2023-02-12T17:15:55.347Z,13.53
2023-02-12T17:18:26.214Z,13.67
2023-02-12T17:20:56.821Z,13.53
2023-02-12T17:23:24.705Z,13.59
2023-02-12T17:25:52.486Z,13.48
2023-02-12T17:28:23.062Z,13.30
2023-02-12T17:30:56.800Z,13.40
2023-02-12T17:33:25.478Z,13.18
2023-02-12T17:35:53.617Z,13.21
2023-02-12T17:38:21.164Z,13.40
2023-02-12T17:40:52.788Z,13.40
2023-02-12T17:43:22.141Z,13.35
2023-02-12T17:45:52.117Z,13.49
2023-02-12T17:48:22.814Z,13.42
2023-02-12T17:50:54.989Z,13.20
2023-02-12T17:53:22.750Z,13.28
2023-02-12T17:55:50.828Z,13.13
2023-02-12T17:58:22.203Z,13.33
2023-02-12T18:00:50.664Z,13.43
2023-02-12T18:03:20.588Z,13.49
2023-02-12T18:05:52.150Z,13.32
2023-02-12T18:08:23.761Z,13.28
2023-02-12T18:10:51.414Z,13.43
2023-02-12T18:13:27.718Z,13.42
2023-02-12T18:16:01.779Z,13.17
2023-02-12T18:18:32.416Z,13.23
2023-02-12T18:20:59.829Z,13.18
2023-02-12T18:23:27.115Z,13.00
2023-02-12T18:25:54.460Z,13.25
2023-02-12T18:28:22.980Z,13.17
2023-02-12T18:30:58.523Z,13.21
2023-02-12T18:33:26.785Z,13.13
2023-02-12T18:36:12.120Z,13.22
2023-02-12T18:38:42.194Z,12.89
2023-02-12T18:41:16.014Z,12.77
2023-02-12T18:43:45.071Z,13.07
2023-02-12T18:46:22.235Z,12.95
2023-02-12T18:48:51.674Z,12.82
2023-02-12T18:51:22.820Z,13.06
2023-02-12T18:54:05.914Z,13.05
2023-02-12T18:56:41.809Z,12.93
2023-02-12T18:59:12.732Z,12.99
2023-02-12T19:01:40.449Z,12.80
2023-02-12T19:04:10.475Z,12.98
2023-02-12T19:06:47.313Z,12.84
2023-02-12T19:09:22.324Z,12.97
2023-02-12T19:11:53.625Z,13.06
2023-02-12T19:14:23.686Z,13.16
2023-02-12T19:16:59.516Z,13.01
2023-02-12T19:19:30.020Z,13.14
2023-02-12T19:22:02.310Z,12.65
2023-02-12T19:24:45.838Z,12.75
2023-02-12T19:27:14.170Z,12.78
2023-02-12T19:29:44.464Z,12.65
2023-02-12T19:32:15.681Z,12.98
2023-02-12T19:34:47.674Z,13.12
2023-02-12T19:37:15.486Z,13.03
2023-02-12T19:39:45.954Z,12.78
2023-02-12T19:42:19.727Z,12.79
2023-02-12T19:44:57.465Z,13.06
2023-02-12T19:47:27.351Z,12.94
2023-02-12T19:49:56.169Z,13.19
2023-02-12T19:52:26.748Z,13.07
2023-02-12T19:54:56.998Z,12.81
2023-02-12T19:57:37.686Z,12.75
2023-02-12T20:00:07.982Z,12.97
2023-02-12T20:02:36.588Z,12.88
2023-02-12T20:05:08.398Z,13.06
2023-02-12T20:07:36.228Z,13.09
2023-02-12T20:10:05.602Z,13.18
2023-02-12T20:12:34.190Z,13.19
2023-02-12T20:15:05.002Z,13.19
2023-02-12T20:17:37.615Z,13.10
2023-02-12T20:20:09.106Z,13.15
2023-02-12T20:22:40.234Z,13.01
2023-02-12T20:25:10.527Z,13.16
2023-02-12T20:27:38.373Z,13.15
2023-02-12T20:30:07.121Z,12.94
2023-02-12T20:32:46.942Z,13.09
2023-02-12T20:35:17.934Z,13.05
2023-02-12T20:37:47.396Z,13.00
2023-02-12T20:40:18.170Z,12.90
2023-02-12T20:42:51.232Z,12.92
2023-02-12T20:45:23.636Z,12.87
2023-02-12T20:47:53.243Z,12.77
2023-02-12T20:50:23.369Z,12.78
2023-02-12T20:52:53.324Z,12.71
2023-02-12T20:55:22.916Z,12.83
2023-02-12T20:57:54.294Z,12.80
2023-02-12T21:00:26.916Z,12.72
2023-02-12T21:02:55.242Z,12.71
2023-02-12T21:05:25.194Z,12.57
2023-02-12T21:07:53.332Z,12.64
2023-02-12T21:10:23.911Z,12.60
2023-02-12T21:12:54.010Z,12.48
2023-02-12T21:15:25.026Z,12.47
2023-02-12T21:17:54.290Z,12.49
2023-02-12T21:20:23.328Z,12.52
2023-02-12T21:22:57.392Z,12.45
2023-02-12T21:25:24.969Z,12.49
2023-02-12T21:27:56.128Z,12.25
2023-02-12T21:30:25.327Z,12.16
2023-02-12T21:32:55.628Z,12.29
2023-02-12T21:35:25.801Z,12.32
2023-02-12T21:37:54.083Z,12.29
2023-02-12T21:40:25.119Z,12.33
2023-02-12T21:42:57.513Z,12.03
2023-02-12T21:45:25.815Z,12.17
2023-02-12T21:48:00.143Z,12.19
2023-02-12T21:50:27.834Z,11.97
2023-02-12T21:52:55.862Z,12.22
2023-02-12T21:55:25.577Z,12.14
2023-02-12T21:57:54.852Z,12.06
2023-02-12T22:00:26.543Z,12.05
2023-02-12T22:02:55.030Z,12.02
2023-02-12T22:05:27.465Z,12.01
2023-02-12T22:07:58.341Z,11.85
2023-02-12T22:10:26.636Z,11.92
2023-02-12T22:12:55.602Z,11.70
2023-02-12T22:15:27.236Z,11.83
2023-02-12T22:17:57.833Z,11.80
2023-02-12T22:20:26.833Z,11.83
2023-02-12T22:22:55.369Z,11.71
2023-02-12T22:25:24.835Z,11.82
2023-02-12T22:27:53.222Z,11.72
2023-02-12T22:30:23.361Z,11.63
2023-02-12T22:32:58.492Z,11.54
2023-02-12T22:35:26.383Z,11.23
2023-02-12T22:37:54.752Z,11.57
2023-02-12T22:40:25.531Z,11.51
2023-02-12T22:42:56.930Z,11.37
2023-02-12T22:45:25.542Z,11.74
2023-02-12T22:47:54.407Z,11.72
2023-02-12T22:50:26.090Z,11.78
2023-02-12T22:53:01.945Z,11.78
2023-02-12T22:55:29.350Z,11.78
2023-02-12T22:57:58.831Z,11.65
2023-02-12T23:00:29.102Z,11.75
2023-02-12T23:02:58.038Z,11.51
2023-02-12T23:05:25.443Z,11.51
2023-02-12T23:07:54.508Z,11.44
2023-02-12T23:10:26.500Z,11.64
2023-02-12T23:12:55.240Z,11.60
2023-02-12T23:15:24.850Z,11.65
2023-02-12T23:17:54.951Z,11.58
2023-02-12T23:20:27.530Z,11.57
2023-02-12T23:22:56.300Z,11.49
2023-02-12T23:25:25.365Z,11.45
2023-02-12T23:27:53.670Z,11.55
2023-02-12T23:30:28.267Z,11.59
2023-02-12T23:32:56.635Z,11.54
2023-02-12T23:35:25.330Z,11.55
2023-02-12T23:37:54.472Z,11.42
2023-02-12T23:40:28.006Z,11.35
2023-02-12T23:42:59.733Z,11.34
2023-02-12T23:45:28.367Z,11.18
2023-02-12T23:47:56.223Z,11.26
2023-02-12T23:50:27.369Z,11.11
2023-02-12T23:52:55.933Z,11.06
2023-02-12T23:55:25.895Z,11.07
2023-02-12T23:57:55.552Z,11.10
